Time,TemperatureF,DewpointF,PressureIn,WindDirection,WindDirectionDegrees,WindSpeedMPH,WindSpeedGustMPH,Humidity,HourlyPrecipIn,Conditions,Clouds,dailyrainin,SolarRadiationWatts/m^2,SoftwareType,DateUTC
2013-01-14 00:15:00,42.9,43.0,29.92,South,179,5.0,-999.0,99,-99.99,,,0.00,0,weatherlink.com 1.10,2013-01-14 05:15:00,
2013-01-14 00:30:00,43.0,43.0,29.92,SSW,209,4.0,-999.0,99,-99.99,,,0.00,0,weatherlink.com 1.10,2013-01-14 05:30:00,
2013-01-14 00:45:00,43.3,43.0,29.92,WSW,241,4.0,-999.0,99,-99.99,,,0.00,0,weatherlink.com 1.10,2013-01-14 05:45:00,
2013-01-14 01:00:00,43.0,43.0,29.93,SSW,209,7.0,-999.0,99,-99.99,,,0.00,0,weatherlink.com 1.10,2013-01-14 06:00:00,
2013-01-14 01:15:00,42.7,43.0,29.92,SW,221,0.0,-999.0,99,-99.99,,,0.00,0,weatherlink.com 1.10,2013-01-14 06:15:00,
2013-01-14 01:30:00,42.8,43.0,29.92,SW,219,4.0,-999.0,99,-99.99,,,0.00,0,weatherlink.com 1.10,2013-01-14 06:30:00,
2013-01-14 01:45:00,42.8,43.0,29.92,SW,218,5.0,-999.0,99,-99.99,,,0.00,0,weatherlink.com 1.10,2013-01-14 06:45:00,
2013-01-14 02:00:00,42.8,43.0,29.93,SW,233,1.0,-999.0,99,-99.99,,,0.00,0,weatherlink.com 1.10,2013-01-14 07:00:00,
2013-01-14 02:15:00,42.6,42.0,29.93,SW,233,0.0,-999.0,99,-99.99,,,0.00,0,weatherlink.com 1.10,2013-01-14 07:15:00,
2013-01-14 02:30:00,42.7,43.0,29.92,SW,233,0.0,-999.0,99,-99.99,,,0.00,0,weatherlink.com 1.10,2013-01-14 07:30:00,
2013-01-14 02:45:00,42.5,42.0,29.91,SW,233,0.0,-999.0,99,-99.99,,,0.00,0,weatherlink.com 1.10,2013-01-14 07:45:00,
2013-01-14 03:00:00,41.5,41.0,29.90,SW,233,0.0,-999.0,99,-99.99,,,0.00,0,weatherlink.com 1.10,2013-01-14 08:00:00,
2013-01-14 03:15:00,40.5,40.0,29.89,SW,233,0.0,-999.0,99,-99.99,,,0.00,0,weatherlink.com 1.10,2013-01-14 08:15:00,
2013-01-14 03:30:00,41.1,41.0,29.89,SW,233,0.0,-999.0,99,-99.99,,,0.00,0,weatherlink.com 1.10,2013-01-14 08:30:00,
2013-01-14 03:45:00,41.7,42.0,29.89,SW,233,0.0,-999.0,99,-99.99,,,0.00,0,weatherlink.com 1.10,2013-01-14 08:45:00,
2013-01-14 04:00:00,42.2,42.0,29.88,SW,233,2.0,-999.0,99,-99.99,,,0.00,0,weatherlink.com 1.10,2013-01-14 09:00:00,
2013-01-14 04:15:00,42.6,42.0,29.87,South,172,0.0,-999.0,99,-99.99,,,0.01,0,weatherlink.com 1.10,2013-01-14 09:15:00,
2013-01-14 04:30:00,42.7,43.0,29.86,SSW,195,4.0,-999.0,99,-99.99,,,0.01,0,weatherlink.com 1.10,2013-01-14 09:30:00,
2013-01-14 04:45:00,42.8,43.0,29.86,SW,227,2.0,-999.0,99,-99.99,,,0.01,0,weatherlink.com 1.10,2013-01-14 09:45:00,
2013-01-14 05:00:00,42.8,43.0,29.85,South,175,0.0,-999.0,99,-99.99,,,0.01,0,weatherlink.com 1.10,2013-01-14 10:00:00,
2013-01-14 05:15:00,42.6,42.0,29.83,SSE,152,5.0,-999.0,99,-99.99,,,0.01,0,weatherlink.com 1.10,2013-01-14 10:15:00,
2013-01-14 05:30:00,42.3,42.0,29.83,SSE,150,7.0,-999.0,99,-99.99,,,0.01,0,weatherlink.com 1.10,2013-01-14 10:30:00,
2013-01-14 05:45:00,42.2,42.0,29.84,SSE,164,4.0,-999.0,99,-99.99,,,0.01,0,weatherlink.com 1.10,2013-01-14 10:45:00,
2013-01-14 06:00:00,42.7,43.0,29.85,SW,234,0.0,-999.0,99,-99.99,,,0.01,0,weatherlink.com 1.10,2013-01-14 11:00:00,
2013-01-14 06:15:00,42.7,43.0,29.82,SSW,209,5.0,-999.0,99,-99.99,,,0.01,0,weatherlink.com 1.10,2013-01-14 11:15:00,
2013-01-14 06:30:00,42.5,42.0,29.86,SW,224,7.0,-999.0,99,-99.99,,,0.01,0,weatherlink.com 1.10,2013-01-14 11:30:00,
2013-01-14 06:45:00,42.2,42.0,29.86,SW,215,0.0,-999.0,99,-99.99,,,0.01,0,weatherlink.com 1.10,2013-01-14 11:45:00,
2013-01-14 07:00:00,42.2,42.0,29.87,SW,215,5.0,-999.0,99,-99.99,,,0.01,0,weatherlink.com 1.10,2013-01-14 12:00:00,
2013-01-14 07:15:00,42.4,42.0,29.84,South,174,4.0,-999.0,99,-99.99,,,0.01,0,weatherlink.com 1.10,2013-01-14 12:15:00,
2013-01-14 07:30:00,42.6,42.0,29.84,South,179,6.0,-999.0,99,-99.99,,,0.01,7,weatherlink.com 1.10,2013-01-14 12:30:00,
2013-01-14 07:45:00,42.8,43.0,29.85,SSW,202,4.0,-999.0,99,-99.99,,,0.02,21,weatherlink.com 1.10,2013-01-14 12:45:00,
2013-01-14 08:00:00,42.9,43.0,29.85,SSW,192,3.0,-999.0,99,-99.99,,,0.02,26,weatherlink.com 1.10,2013-01-14 13:00:00,
2013-01-14 08:15:00,42.9,43.0,29.85,SSW,193,5.0,-999.0,99,-99.99,,,0.02,28,weatherlink.com 1.10,2013-01-14 13:15:00,
2013-01-14 08:30:00,43.0,43.0,29.86,SW,236,4.0,-999.0,99,-99.99,,,0.02,46,weatherlink.com 1.10,2013-01-14 13:30:00,
2013-01-14 08:45:00,43.2,43.0,29.86,SW,227,6.0,-999.0,99,-99.99,,,0.02,62,weatherlink.com 1.10,2013-01-14 13:45:00,
2013-01-14 09:00:00,43.2,43.0,29.86,SW,214,6.0,-999.0,99,-99.99,,,0.02,72,weatherlink.com 1.10,2013-01-14 14:00:00,
2013-01-14 09:15:00,43.6,43.0,29.87,WSW,240,0.0,-999.0,99,-99.99,,,0.02,98,weatherlink.com 1.10,2013-01-14 14:15:00,
2013-01-14 09:30:00,44.0,44.0,29.87,SW,227,3.0,-999.0,99,-99.99,,,0.02,141,weatherlink.com 1.10,2013-01-14 14:30:00,
2013-01-14 09:45:00,44.6,44.0,29.88,SW,226,0.0,-999.0,99,-99.99,,,0.02,142,weatherlink.com 1.10,2013-01-14 14:45:00,
2013-01-14 10:00:00,45.0,45.0,29.89,SW,227,0.0,-999.0,99,-99.99,,,0.02,199,weatherlink.com 1.10,2013-01-14 15:00:00,
2013-01-14 10:15:00,44.5,44.0,29.89,WSW,258,2.0,-999.0,99,-99.99,,,0.02,186,weatherlink.com 1.10,2013-01-14 15:15:00,
2013-01-14 10:30:00,43.1,43.0,29.88,WNW,284,0.0,-999.0,99,-99.99,,,0.02,128,weatherlink.com 1.10,2013-01-14 15:30:00,
2013-01-14 10:45:00,42.8,43.0,29.88,WNW,284,0.0,-999.0,99,-99.99,,,0.02,104,weatherlink.com 1.10,2013-01-14 15:45:00,
2013-01-14 11:00:00,44.0,44.0,29.87,WNW,283,0.0,-999.0,99,-99.99,,,0.02,348,weatherlink.com 1.10,2013-01-14 16:00:00,
2013-01-14 11:15:00,44.7,45.0,29.87,WNW,283,0.0,-999.0,99,-99.99,,,0.02,424,weatherlink.com 1.10,2013-01-14 16:15:00,
2013-01-14 11:30:00,45.8,46.0,29.88,NNW,333,5.0,-999.0,99,-99.99,,,0.02,418,weatherlink.com 1.10,2013-01-14 16:30:00,
2013-01-14 11:45:00,44.3,44.0,29.88,North,11,4.0,-999.0,99,-99.99,,,0.02,410,weatherlink.com 1.10,2013-01-14 16:45:00,
2013-01-14 12:00:00,45.2,45.0,29.87,NNW,339,0.0,-999.0,99,-99.99,,,0.02,466,weatherlink.com 1.10,2013-01-14 17:00:00,
2013-01-14 12:15:00,48.4,48.0,29.88,WNW,303,0.0,-999.0,99,-99.99,,,0.02,471,weatherlink.com 1.10,2013-01-14 17:15:00,
2013-01-14 12:30:00,49.9,50.0,29.89,WNW,303,0.0,-999.0,99,-99.99,,,0.02,480,weatherlink.com 1.10,2013-01-14 17:30:00,
2013-01-14 12:45:00,51.1,51.0,29.90,WSW,257,0.0,-999.0,99,-99.99,,,0.02,401,weatherlink.com 1.10,2013-01-14 17:45:00,
2013-01-14 13:00:00,52.2,52.0,29.90,WSW,238,5.0,-999.0,99,-99.99,,,0.02,334,weatherlink.com 1.10,2013-01-14 18:00:00,
2013-01-14 13:15:00,53.5,53.0,29.91,West,267,0.0,-999.0,99,-99.99,,,0.02,318,weatherlink.com 1.10,2013-01-14 18:15:00,
2013-01-14 13:30:00,54.5,54.0,29.92,NNW,342,4.0,-999.0,99,-99.99,,,0.02,348,weatherlink.com 1.10,2013-01-14 18:30:00,
2013-01-14 13:45:00,55.5,49.0,29.93,West,281,11.0,-999.0,80,-99.99,,,0.02,320,weatherlink.com 1.10,2013-01-14 18:45:00,
2013-01-14 14:00:00,55.6,45.0,29.94,NNW,330,4.0,-999.0,67,-99.99,,,0.02,62,weatherlink.com 1.10,2013-01-14 19:00:00,
2013-01-14 14:15:00,54.4,42.0,29.95,NNW,333,8.0,-999.0,63,-99.99,,,0.02,316,weatherlink.com 1.10,2013-01-14 19:15:00,
2013-01-14 14:30:00,53.7,40.0,29.97,NNW,331,5.0,-999.0,61,-99.99,,,0.02,288,weatherlink.com 1.10,2013-01-14 19:30:00,
2013-01-14 14:45:00,53.2,39.0,29.98,WNW,302,5.0,-999.0,58,-99.99,,,0.02,246,weatherlink.com 1.10,2013-01-14 19:45:00,
2013-01-14 15:00:00,52.6,36.0,29.98,NW,317,13.0,-999.0,54,-99.99,,,0.02,202,weatherlink.com 1.10,2013-01-14 20:00:00,
2013-01-14 15:15:00,51.1,34.0,30.01,NW,310,8.0,-999.0,53,-99.99,,,0.02,74,weatherlink.com 1.10,2013-01-14 20:15:00,
2013-01-14 15:30:00,49.8,32.0,30.03,NW,319,9.0,-999.0,50,-99.99,,,0.02,33,weatherlink.com 1.10,2013-01-14 20:30:00,
2013-01-14 15:48:00,48.1,31.0,30.03,NW,318,9.0,-999.0,51,-99.99,,,0.02,44,weatherlink.com 1.10,2013-01-14 20:48:00,
2013-01-14 16:00:00,47.0,29.0,30.04,WNW,296,8.0,-999.0,50,-99.99,,,0.02,30,weatherlink.com 1.10,2013-01-14 21:00:00,
2013-01-14 16:15:00,45.9,29.0,30.05,NW,312,11.0,-999.0,52,-99.99,,,0.02,9,weatherlink.com 1.10,2013-01-14 21:15:00,
2013-01-14 16:30:00,44.8,29.0,30.07,NW,321,0.0,-999.0,54,-99.99,,,0.02,0,weatherlink.com 1.10,2013-01-14 21:30:00,
2013-01-14 16:45:00,43.8,29.0,30.07,NNW,327,6.0,-999.0,56,-99.99,,,0.02,0,weatherlink.com 1.10,2013-01-14 21:45:00,
2013-01-14 17:00:00,43.3,28.0,30.09,NW,313,3.0,-999.0,56,-99.99,,,0.02,0,weatherlink.com 1.10,2013-01-14 22:00:00,
2013-01-14 17:15:00,42.5,28.0,30.09,NW,325,9.0,-999.0,56,-99.99,,,0.02,0,weatherlink.com 1.10,2013-01-14 22:15:00,
2013-01-14 17:30:00,41.8,27.0,30.09,NW,323,5.0,-999.0,57,-99.99,,,0.02,0,weatherlink.com 1.10,2013-01-14 22:30:00,
2013-01-14 17:45:00,41.4,28.0,30.09,NW,319,6.0,-999.0,59,-99.99,,,0.02,0,weatherlink.com 1.10,2013-01-14 22:45:00,
2013-01-14 18:00:00,40.8,28.0,30.09,NNW,331,2.0,-999.0,60,-99.99,,,0.02,0,weatherlink.com 1.10,2013-01-14 23:00:00,
2013-01-14 18:15:00,40.1,27.0,30.10,NW,320,8.0,-999.0,61,-99.99,,,0.02,0,weatherlink.com 1.10,2013-01-14 23:15:00,
2013-01-14 18:30:00,39.5,27.0,30.10,NNW,330,8.0,-999.0,62,-99.99,,,0.02,0,weatherlink.com 1.10,2013-01-14 23:30:00,
2013-01-14 18:45:00,39.1,27.0,30.10,NNW,334,5.0,-999.0,61,-99.99,,,0.02,0,weatherlink.com 1.10,2013-01-14 23:45:00,
2013-01-14 19:00:00,38.4,26.0,30.12,NW,323,3.0,-999.0,62,-99.99,,,0.02,0,weatherlink.com 1.10,2013-01-15 00:00:00,
2013-01-14 19:15:00,38.0,26.0,30.13,WNW,299,4.0,-999.0,62,-99.99,,,0.02,0,weatherlink.com 1.10,2013-01-15 00:15:00,
2013-01-14 19:30:00,37.7,26.0,30.16,NW,323,2.0,-999.0,62,-99.99,,,0.02,0,weatherlink.com 1.10,2013-01-15 00:30:00,
2013-01-14 19:45:00,37.7,26.0,30.15,NW,304,6.0,-999.0,62,-99.99,,,0.02,0,weatherlink.com 1.10,2013-01-15 00:45:00,
2013-01-14 20:00:00,37.3,26.0,30.15,NW,310,3.0,-999.0,63,-99.99,,,0.02,0,weatherlink.com 1.10,2013-01-15 01:00:00,
2013-01-14 20:15:00,36.9,25.0,30.14,WNW,300,3.0,-999.0,63,-99.99,,,0.02,0,weatherlink.com 1.10,2013-01-15 01:15:00,
2013-01-14 20:30:00,36.3,25.0,30.18,WNW,302,0.0,-999.0,64,-99.99,,,0.02,0,weatherlink.com 1.10,2013-01-15 01:30:00,
2013-01-14 20:45:00,36.2,25.0,30.17,WNW,299,4.0,-999.0,64,-99.99,,,0.02,0,weatherlink.com 1.10,2013-01-15 01:45:00,
2013-01-14 21:00:00,36.0,25.0,30.17,NW,310,6.0,-999.0,65,-99.99,,,0.02,0,weatherlink.com 1.10,2013-01-15 02:00:00,
2013-01-14 21:15:00,36.1,25.0,30.17,NNW,329,0.0,-999.0,64,-99.99,,,0.02,0,weatherlink.com 1.10,2013-01-15 02:15:00,
2013-01-14 21:30:00,36.0,25.0,30.16,NW,313,0.0,-999.0,65,-99.99,,,0.02,0,weatherlink.com 1.10,2013-01-15 02:30:00,
2013-01-14 21:45:00,35.8,25.0,30.16,NW,316,5.0,-999.0,65,-99.99,,,0.02,0,weatherlink.com 1.10,2013-01-15 02:45:00,
2013-01-14 22:00:00,35.5,25.0,30.16,NW,319,0.0,-999.0,66,-99.99,,,0.02,0,weatherlink.com 1.10,2013-01-15 03:00:00,
2013-01-14 22:15:00,35.2,25.0,30.16,NNW,332,0.0,-999.0,67,-99.99,,,0.02,0,weatherlink.com 1.10,2013-01-15 03:15:00,
2013-01-14 22:30:00,35.0,25.0,30.16,NNW,331,0.0,-999.0,68,-99.99,,,0.02,0,weatherlink.com 1.10,2013-01-15 03:30:00,
2013-01-14 22:45:00,35.0,25.0,30.17,NW,319,4.0,-999.0,68,-99.99,,,0.02,0,weatherlink.com 1.10,2013-01-15 03:45:00,
2013-01-14 23:00:00,34.8,25.0,30.18,NW,315,5.0,-999.0,68,-99.99,,,0.02,0,weatherlink.com 1.10,2013-01-15 04:00:00,
2013-01-14 23:15:00,34.8,25.0,30.18,NW,318,0.0,-999.0,68,-99.99,,,0.02,0,weatherlink.com 1.10,2013-01-15 04:15:00,
2013-01-14 23:30:00,34.8,25.0,30.17,North,360,5.0,-999.0,67,-99.99,,,0.02,0,weatherlink.com 1.10,2013-01-15 04:30:00,
2013-01-14 23:45:00,34.6,25.0,30.17,NW,322,0.0,-999.0,67,-99.99,,,0.02,0,weatherlink.com 1.10,2013-01-15 04:45:00,